createdAt,value
2022-12-25T00:01:16.733Z,9.90
2022-12-25T00:03:44.144Z,9.90
2022-12-25T00:06:11.182Z,9.90
2022-12-25T00:08:39.138Z,9.90
2022-12-25T00:11:08.227Z,10.00
2022-12-25T00:13:34.989Z,9.90
2022-12-25T00:16:10.041Z,9.90
2022-12-25T00:18:36.785Z,9.90
2022-12-25T00:21:05.737Z,9.90
2022-12-25T00:23:33.899Z,10.00
2022-12-25T00:26:04.937Z,9.90
2022-12-25T00:28:31.712Z,10.00
2022-12-25T00:30:58.479Z,10.00
2022-12-25T00:33:26.332Z,10.00
2022-12-25T00:36:00.623Z,10.00
2022-12-25T00:38:27.897Z,10.10
2022-12-25T00:40:54.953Z,10.10
2022-12-25T00:43:21.766Z,10.10
2022-12-25T00:45:59.658Z,10.20
2022-12-25T00:48:27.247Z,10.20
2022-12-25T00:50:58.841Z,10.10
2022-12-25T00:53:26.275Z,10.10
2022-12-25T00:55:58.772Z,10.10
2022-12-25T00:58:26.895Z,10.10
2022-12-25T01:00:53.966Z,10.10
2022-12-25T01:03:20.873Z,10.10
2022-12-25T01:05:59.304Z,10.10
2022-12-25T01:08:31.230Z,10.10
2022-12-25T01:11:10.489Z,10.10
2022-12-25T01:13:37.727Z,10.10
2022-12-25T01:16:12.328Z,10.10
2022-12-25T01:18:39.363Z,10.20
2022-12-25T01:21:12.384Z,10.10
2022-12-25T01:23:39.315Z,10.10
2022-12-25T01:26:11.553Z,10.10
2022-12-25T01:28:39.000Z,10.10
2022-12-25T01:31:11.644Z,10.10
2022-12-25T01:33:39.436Z,10.10
2022-12-25T01:36:23.730Z,10.00
2022-12-25T01:38:51.464Z,10.00
2022-12-25T01:41:22.541Z,10.00
2022-12-25T01:44:08.059Z,10.10
2022-12-25T01:46:37.726Z,10.10
2022-12-25T01:49:12.880Z,10.10
2022-12-25T01:51:44.631Z,10.10
2022-12-25T01:54:24.549Z,10.20
2022-12-25T01:56:54.807Z,10.20
2022-12-25T01:59:26.008Z,10.20
2022-12-25T02:01:53.251Z,10.10
2022-12-25T02:04:38.737Z,10.10
2022-12-25T02:07:19.207Z,10.10
2022-12-25T02:09:46.848Z,10.20
2022-12-25T02:12:40.649Z,10.20
2022-12-25T02:15:15.292Z,10.20
2022-12-25T02:18:00.550Z,10.20
2022-12-25T02:20:40.101Z,10.30
2022-12-25T02:23:12.597Z,10.30
2022-12-25T02:25:57.129Z,10.30
2022-12-25T02:28:53.754Z,10.30
2022-12-25T02:31:29.916Z,10.30
2022-12-25T02:34:14.475Z,10.20
2022-12-25T02:37:10.194Z,10.30
2022-12-25T02:39:58.068Z,10.40
2022-12-25T02:42:59.866Z,10.30
2022-12-25T02:45:52.900Z,10.30
2022-12-25T02:48:43.342Z,10.30
2022-12-25T02:51:31.311Z,10.30
2022-12-25T02:54:19.689Z,10.30
2022-12-25T02:57:07.832Z,10.30
2022-12-25T02:59:56.866Z,10.30
2022-12-25T03:02:43.653Z,10.40
2022-12-25T03:05:33.507Z,10.30
2022-12-25T03:08:06.494Z,10.30
2022-12-25T03:10:58.660Z,10.30
2022-12-25T03:13:32.538Z,10.30
2022-12-25T03:16:17.886Z,10.30
2022-12-25T03:18:44.747Z,10.30
2022-12-25T03:21:29.900Z,10.40
2022-12-25T03:24:19.282Z,10.30
2022-12-25T03:26:55.187Z,10.30
2022-12-25T03:29:41.643Z,10.30
2022-12-25T03:32:43.545Z,10.30
2022-12-25T03:35:34.614Z,10.30
2022-12-25T03:38:41.574Z,10.30
2022-12-25T03:41:37.230Z,10.30
2022-12-25T03:44:32.152Z,10.40
2022-12-25T03:47:33.892Z,10.30
2022-12-25T03:50:34.673Z,10.40
2022-12-25T03:53:24.313Z,10.40
2022-12-25T03:56:11.139Z,10.40
2022-12-25T03:58:56.526Z,10.40
2022-12-25T04:01:41.865Z,10.40
2022-12-25T04:04:27.118Z,10.40
2022-12-25T04:07:12.661Z,10.40
2022-12-25T04:09:58.070Z,10.40
2022-12-25T04:12:46.075Z,10.40
2022-12-25T04:15:31.670Z,10.40
2022-12-25T04:18:17.005Z,10.40
2022-12-25T04:21:02.449Z,10.40
2022-12-25T04:23:47.954Z,10.40
2022-12-25T04:26:33.371Z,10.30
2022-12-25T04:29:18.705Z,10.40
2022-12-25T04:32:04.053Z,10.40
2022-12-25T04:34:49.462Z,10.40
2022-12-25T04:37:19.106Z,10.50
2022-12-25T04:39:45.855Z,10.50
2022-12-25T04:42:12.669Z,10.50
2022-12-25T04:44:39.359Z,10.50
2022-12-25T04:47:11.240Z,10.50
2022-12-25T04:49:38.951Z,10.50
2022-12-25T04:52:13.010Z,10.50
2022-12-25T04:54:39.832Z,10.50
2022-12-25T04:57:09.250Z,10.50
2022-12-25T04:59:35.961Z,10.50
2022-12-25T05:02:02.769Z,10.40
2022-12-25T05:04:29.623Z,10.40
2022-12-25T05:06:56.308Z,10.40
2022-12-25T05:09:22.999Z,10.40
2022-12-25T05:11:49.822Z,10.40
2022-12-25T05:14:16.557Z,10.40
2022-12-25T05:16:43.404Z,10.30
2022-12-25T05:19:10.631Z,10.40
2022-12-25T05:21:37.508Z,10.40
2022-12-25T05:24:04.446Z,10.40
2022-12-25T05:26:31.215Z,10.40
2022-12-25T05:28:59.861Z,10.40
2022-12-25T05:31:26.592Z,10.30
2022-12-25T05:33:53.349Z,10.40
2022-12-25T05:36:22.366Z,10.40
2022-12-25T05:38:51.435Z,10.30
2022-12-25T05:41:18.291Z,10.40
2022-12-25T05:43:45.124Z,10.40
2022-12-25T05:46:13.173Z,10.40
2022-12-25T05:48:40.239Z,10.40
2022-12-25T05:51:10.938Z,10.50
2022-12-25T05:53:38.587Z,10.40
2022-12-25T05:56:07.434Z,10.40
2022-12-25T05:58:35.820Z,10.40
2022-12-25T06:01:02.849Z,10.40
2022-12-25T06:03:29.655Z,10.40
2022-12-25T06:05:56.591Z,10.40
2022-12-25T06:08:23.360Z,10.40
2022-12-25T06:10:50.061Z,10.40
2022-12-25T06:13:16.782Z,10.40
2022-12-25T06:15:46.114Z,10.40
2022-12-25T06:18:12.804Z,10.40
2022-12-25T06:20:44.890Z,10.40
2022-12-25T06:23:11.633Z,10.40
2022-12-25T06:25:40.307Z,10.50
2022-12-25T06:28:07.872Z,10.50
2022-12-25T06:30:34.783Z,10.40
2022-12-25T06:33:02.777Z,10.40
2022-12-25T06:35:29.573Z,10.40
2022-12-25T06:37:56.670Z,10.50
2022-12-25T06:40:23.448Z,10.50
2022-12-25T06:42:51.383Z,10.40
2022-12-25T06:45:18.056Z,10.40
2022-12-25T06:47:44.787Z,10.40
2022-12-25T06:50:11.579Z,10.40
2022-12-25T06:52:38.281Z,10.40
2022-12-25T06:55:05.348Z,10.40
2022-12-25T06:57:32.639Z,10.40
2022-12-25T06:59:59.351Z,10.40
2022-12-25T07:02:26.241Z,10.50
2022-12-25T07:04:53.459Z,10.40
2022-12-25T07:07:21.479Z,10.40
2022-12-25T07:09:50.707Z,10.40
2022-12-25T07:12:23.598Z,10.50
2022-12-25T07:14:53.330Z,10.40
2022-12-25T07:17:20.452Z,10.40
2022-12-25T07:19:47.764Z,10.40
2022-12-25T07:22:15.711Z,10.40
2022-12-25T07:24:42.595Z,10.40
2022-12-25T07:27:09.567Z,10.40
2022-12-25T07:29:36.384Z,10.40
2022-12-25T07:32:03.186Z,10.40
2022-12-25T07:34:30.074Z,10.50
2022-12-25T07:36:56.833Z,10.50
2022-12-25T07:39:23.964Z,10.50
2022-12-25T07:41:51.237Z,10.50
2022-12-25T07:44:18.217Z,10.50
2022-12-25T07:46:45.426Z,10.40
2022-12-25T07:49:12.874Z,10.40
2022-12-25T07:51:39.822Z,10.50
2022-12-25T07:54:06.683Z,10.50
2022-12-25T07:56:33.591Z,10.50
2022-12-25T07:59:00.439Z,10.50
2022-12-25T08:01:27.889Z,10.50
2022-12-25T08:03:57.638Z,10.50
2022-12-25T08:06:29.631Z,10.50
2022-12-25T08:08:58.109Z,10.50
2022-12-25T08:11:24.847Z,10.50
2022-12-25T08:13:54.113Z,10.50
2022-12-25T08:16:20.961Z,10.50
2022-12-25T08:18:50.508Z,10.50
2022-12-25T08:21:17.270Z,10.50
2022-12-25T08:23:48.410Z,10.50
2022-12-25T08:26:18.533Z,10.40
2022-12-25T08:28:45.434Z,10.40
2022-12-25T08:31:23.617Z,10.40
2022-12-25T08:33:54.047Z,10.40
2022-12-25T08:36:21.073Z,10.40
2022-12-25T08:38:48.058Z,10.40
2022-12-25T08:41:16.030Z,10.40
2022-12-25T08:43:43.057Z,10.40
2022-12-25T08:46:11.413Z,10.40
2022-12-25T08:48:41.219Z,10.50
2022-12-25T08:51:17.474Z,10.50
2022-12-25T08:53:46.013Z,10.50
2022-12-25T08:56:14.065Z,10.50
2022-12-25T08:58:41.231Z,10.50
2022-12-25T09:01:08.424Z,10.50
2022-12-25T09:03:35.693Z,10.50
2022-12-25T09:06:08.718Z,10.50
2022-12-25T09:08:38.887Z,10.50
2022-12-25T09:11:13.121Z,10.60
2022-12-25T09:13:43.062Z,10.60
2022-12-25T09:16:13.031Z,10.60
2022-12-25T09:18:40.130Z,10.60
2022-12-25T09:21:10.388Z,10.60
2022-12-25T09:23:37.122Z,10.60
2022-12-25T09:26:06.305Z,10.60
2022-12-25T09:28:33.946Z,10.60
2022-12-25T09:31:01.007Z,10.60
2022-12-25T09:33:27.901Z,10.50
2022-12-25T09:36:06.042Z,10.50
2022-12-25T09:38:33.523Z,10.50
2022-12-25T09:41:17.587Z,10.40
2022-12-25T09:43:57.655Z,10.40
2022-12-25T09:46:34.710Z,10.40
2022-12-25T09:49:23.034Z,10.40
2022-12-25T09:51:57.021Z,10.40
2022-12-25T09:54:36.960Z,10.30
2022-12-25T09:57:04.036Z,10.40
2022-12-25T09:59:30.818Z,10.40
2022-12-25T10:02:21.992Z,10.40
2022-12-25T10:05:04.954Z,10.40
2022-12-25T10:07:57.166Z,10.30
2022-12-25T10:11:05.091Z,10.30
2022-12-25T10:13:50.414Z,10.20
2022-12-25T10:16:31.909Z,10.30
2022-12-25T10:19:22.096Z,10.30
2022-12-25T10:21:52.241Z,10.30
2022-12-25T10:24:36.817Z,10.30
2022-12-25T10:27:11.526Z,10.30
2022-12-25T10:29:39.712Z,10.30
2022-12-25T10:32:06.476Z,10.40
2022-12-25T10:34:33.240Z,10.40
2022-12-25T10:37:00.029Z,10.40
2022-12-25T10:39:26.916Z,10.40
2022-12-25T10:42:00.244Z,10.40
2022-12-25T10:44:27.057Z,10.40
2022-12-25T10:46:59.460Z,10.40
2022-12-25T10:49:38.176Z,10.40
2022-12-25T10:52:20.219Z,10.40
2022-12-25T10:54:47.022Z,10.40
2022-12-25T10:57:19.626Z,10.40
2022-12-25T10:59:57.689Z,10.40
2022-12-25T11:02:28.779Z,10.40
2022-12-25T11:05:05.814Z,10.40
2022-12-25T11:07:35.001Z,10.40
2022-12-25T11:10:15.207Z,10.40
2022-12-25T11:12:45.516Z,10.40
2022-12-25T11:15:39.531Z,10.40
2022-12-25T11:18:26.220Z,10.40
2022-12-25T11:20:56.598Z,10.40
2022-12-25T11:23:25.212Z,10.40
2022-12-25T11:25:56.291Z,10.50
2022-12-25T11:28:24.163Z,10.50
2022-12-25T11:30:56.503Z,10.50
2022-12-25T11:33:29.086Z,10.50
2022-12-25T11:35:58.015Z,10.50
2022-12-25T11:38:25.166Z,10.60
2022-12-25T11:40:58.178Z,10.60
2022-12-25T11:43:39.511Z,10.60
2022-12-25T11:46:19.836Z,10.60
2022-12-25T11:48:56.327Z,10.60
2022-12-25T11:51:30.716Z,10.60
2022-12-25T11:54:23.732Z,10.60
2022-12-25T11:56:53.521Z,10.60
2022-12-25T11:59:38.396Z,10.60
2022-12-25T12:02:25.091Z,10.60
2022-12-25T12:05:04.297Z,10.60
2022-12-25T12:07:33.981Z,10.70
2022-12-25T12:10:15.073Z,10.70
2022-12-25T12:13:04.722Z,10.80
2022-12-25T12:15:45.314Z,10.80
2022-12-25T12:18:27.392Z,10.80
2022-12-25T12:21:17.938Z,10.90
2022-12-25T12:24:14.763Z,10.90
2022-12-25T12:26:44.036Z,10.90
2022-12-25T12:29:44.260Z,10.90
2022-12-25T12:32:41.611Z,10.90
2022-12-25T12:35:31.288Z,10.90
2022-12-25T12:38:16.694Z,11.00
2022-12-25T12:40:52.639Z,11.00
2022-12-25T12:43:39.329Z,11.00
2022-12-25T12:46:30.007Z,11.10
2022-12-25T12:49:24.396Z,11.10
2022-12-25T12:52:03.442Z,11.10
2022-12-25T12:54:32.989Z,11.10
2022-12-25T12:57:01.196Z,11.10
2022-12-25T12:59:37.051Z,11.20
2022-12-25T13:02:19.703Z,11.20
2022-12-25T13:05:03.971Z,11.20
2022-12-25T13:07:44.030Z,11.20
2022-12-25T13:10:33.082Z,11.30
2022-12-25T13:13:02.863Z,11.30
2022-12-25T13:15:33.839Z,11.20
2022-12-25T13:18:05.825Z,11.30
2022-12-25T13:20:55.226Z,11.30
2022-12-25T13:23:24.612Z,11.40
2022-12-25T13:25:56.013Z,11.40
2022-12-25T13:28:33.617Z,11.40
2022-12-25T13:31:20.131Z,11.40
2022-12-25T13:34:06.675Z,11.50
2022-12-25T13:36:38.454Z,11.50
2022-12-25T13:39:08.482Z,11.50
2022-12-25T13:42:04.587Z,11.50
2022-12-25T13:44:47.787Z,11.50
2022-12-25T13:47:33.841Z,11.50
2022-12-25T13:50:01.960Z,11.50
2022-12-25T13:52:34.134Z,11.50
2022-12-25T13:55:02.339Z,11.60
2022-12-25T13:57:35.191Z,11.60
2022-12-25T14:00:03.350Z,11.60
2022-12-25T14:02:34.672Z,11.60
2022-12-25T14:05:27.929Z,11.60
2022-12-25T14:07:57.031Z,11.60
2022-12-25T14:10:27.392Z,11.70
2022-12-25T14:12:56.154Z,11.70
2022-12-25T14:15:23.944Z,11.70
2022-12-25T14:17:54.248Z,11.70
2022-12-25T14:20:27.624Z,11.70
2022-12-25T14:22:57.247Z,11.80
2022-12-25T14:25:33.379Z,11.70
2022-12-25T14:28:05.295Z,11.70
2022-12-25T14:30:32.389Z,11.70
2022-12-25T14:33:02.943Z,11.70
2022-12-25T14:35:31.937Z,11.80
2022-12-25T14:38:02.678Z,11.90
2022-12-25T14:40:31.849Z,12.00
2022-12-25T14:43:04.342Z,12.00
2022-12-25T14:45:33.379Z,12.10
2022-12-25T14:48:25.594Z,12.10
2022-12-25T14:51:05.974Z,12.10
2022-12-25T14:53:35.088Z,12.20
2022-12-25T14:56:02.600Z,12.20
2022-12-25T14:58:32.716Z,12.20
2022-12-25T15:01:04.530Z,12.10
2022-12-25T15:03:35.831Z,12.10
2022-12-25T15:06:02.592Z,12.20
2022-12-25T15:08:30.983Z,12.10
2022-12-25T15:11:01.007Z,12.20
2022-12-25T15:13:30.566Z,12.10
2022-12-25T15:16:16.398Z,12.10
2022-12-25T15:18:45.837Z,12.10
2022-12-25T15:21:27.578Z,12.10
2022-12-25T15:23:58.980Z,12.00
2022-12-25T15:26:27.763Z,12.00
2022-12-25T15:28:55.720Z,12.00
2022-12-25T15:31:31.430Z,12.00
2022-12-25T15:34:00.821Z,11.90
2022-12-25T15:36:28.109Z,11.90
2022-12-25T15:38:55.638Z,11.90
2022-12-25T15:41:47.691Z,11.90
2022-12-25T15:44:17.631Z,11.90
2022-12-25T15:46:45.941Z,11.80
2022-12-25T15:49:14.168Z,11.80
2022-12-25T15:51:42.298Z,11.80
2022-12-25T15:54:09.773Z,11.80
2022-12-25T15:56:44.622Z,11.80
2022-12-25T15:59:15.777Z,11.80
2022-12-25T16:01:47.365Z,11.80
2022-12-25T16:04:14.148Z,11.70
2022-12-25T16:06:40.938Z,11.70
2022-12-25T16:09:07.728Z,11.70
2022-12-25T16:11:34.368Z,11.70
2022-12-25T16:14:01.097Z,11.80
2022-12-25T16:16:27.893Z,11.80
2022-12-25T16:18:54.572Z,11.80
2022-12-25T16:21:22.026Z,11.90
2022-12-25T16:23:53.712Z,11.90
2022-12-25T16:26:21.549Z,11.90
2022-12-25T16:28:48.379Z,11.90
2022-12-25T16:31:15.085Z,11.90
2022-12-25T16:33:44.071Z,11.90
2022-12-25T16:36:10.781Z,11.90
2022-12-25T16:38:37.547Z,11.90
2022-12-25T16:41:04.382Z,12.00
2022-12-25T16:43:31.091Z,12.00
2022-12-25T16:46:05.278Z,12.00
2022-12-25T16:48:34.252Z,12.10
2022-12-25T16:51:03.144Z,12.20
2022-12-25T16:53:30.050Z,12.20
2022-12-25T16:56:05.823Z,12.30
2022-12-25T16:58:33.329Z,12.30
2022-12-25T17:01:08.168Z,12.20
2022-12-25T17:03:37.578Z,12.30
2022-12-25T17:06:12.256Z,12.30
2022-12-25T17:08:39.043Z,12.30
2022-12-25T17:11:05.997Z,12.30
2022-12-25T17:13:32.675Z,12.30
2022-12-25T17:15:59.446Z,12.40
2022-12-25T17:18:26.630Z,12.40
2022-12-25T17:20:53.946Z,12.40
2022-12-25T17:23:21.155Z,12.40
2022-12-25T17:25:47.862Z,12.30
2022-12-25T17:28:15.287Z,12.30
2022-12-25T17:30:44.593Z,12.30
2022-12-25T17:33:11.341Z,12.30
2022-12-25T17:35:38.121Z,12.40
2022-12-25T17:38:04.938Z,12.40
2022-12-25T17:40:34.229Z,12.40
2022-12-25T17:43:01.090Z,12.40
2022-12-25T17:45:27.806Z,12.40
2022-12-25T17:47:57.404Z,12.40
2022-12-25T17:50:45.431Z,12.40
2022-12-25T17:53:12.625Z,12.40
2022-12-25T17:55:41.417Z,12.40
2022-12-25T17:58:39.704Z,12.40
2022-12-25T18:01:08.711Z,12.40
2022-12-25T18:03:36.788Z,12.60
2022-12-25T18:06:44.877Z,12.70
2022-12-25T18:09:26.640Z,12.80
2022-12-25T18:15:01.407Z,12.90
2022-12-25T18:18:03.275Z,12.90
2022-12-25T18:20:35.912Z,12.90
2022-12-25T18:23:09.615Z,13.10
2022-12-25T18:25:41.083Z,13.00
2022-12-25T18:28:08.081Z,13.00
2022-12-25T18:30:34.934Z,12.90
2022-12-25T18:33:01.652Z,12.90
2022-12-25T18:35:29.970Z,12.90
2022-12-25T18:38:01.796Z,13.00
2022-12-25T18:40:30.042Z,13.00
2022-12-25T18:43:02.978Z,13.00
2022-12-25T18:45:30.406Z,13.00
2022-12-25T18:47:58.134Z,13.10
2022-12-25T18:50:27.848Z,13.20
2022-12-25T18:52:54.656Z,13.10
2022-12-25T18:55:21.790Z,13.00
2022-12-25T18:57:56.773Z,13.00
2022-12-25T19:00:23.897Z,13.00
2022-12-25T19:02:51.135Z,13.10
2022-12-25T19:05:18.224Z,13.10
2022-12-25T19:07:45.309Z,13.10
2022-12-25T19:10:14.450Z,13.00
2022-12-25T19:12:41.351Z,13.10
2022-12-25T19:15:08.939Z,12.90
2022-12-25T19:17:35.832Z,13.00
2022-12-25T19:20:02.763Z,13.10
2022-12-25T19:22:42.242Z,13.10
2022-12-25T19:28:26.698Z,13.00
2022-12-25T19:30:54.235Z,13.00
2022-12-25T19:33:23.863Z,12.90
2022-12-25T19:35:53.604Z,12.90
2022-12-25T19:38:21.847Z,12.90
2022-12-25T19:41:00.947Z,12.90
2022-12-25T19:43:32.108Z,12.90
2022-12-25T19:46:08.644Z,13.00
2022-12-25T19:48:36.697Z,13.00
2022-12-25T19:51:27.061Z,13.00
2022-12-25T19:53:56.218Z,13.00
2022-12-25T19:56:30.422Z,13.00
2022-12-25T19:59:03.756Z,12.90
2022-12-25T20:01:31.930Z,12.90
2022-12-25T20:04:01.438Z,12.90
2022-12-25T20:06:34.159Z,12.90
2022-12-25T20:09:09.207Z,12.90
2022-12-25T20:11:38.549Z,12.80
2022-12-25T20:14:13.187Z,12.80
2022-12-25T20:16:42.345Z,12.90
2022-12-25T20:19:17.182Z,12.90
2022-12-25T20:21:46.106Z,12.90
2022-12-25T20:24:16.516Z,12.80
2022-12-25T20:26:47.490Z,12.80
2022-12-25T20:29:14.618Z,12.70
2022-12-25T20:31:41.451Z,12.60
2022-12-25T20:34:12.760Z,12.70
2022-12-25T20:36:39.823Z,12.70
2022-12-25T20:39:09.593Z,12.70
2022-12-25T20:41:36.824Z,12.70
2022-12-25T20:44:04.428Z,12.60
2022-12-25T20:46:31.456Z,12.70
2022-12-25T20:51:42.136Z,12.70
2022-12-25T20:54:25.313Z,12.70
2022-12-25T20:56:52.812Z,12.70
2022-12-25T20:59:19.790Z,12.80
2022-12-25T21:01:48.863Z,12.90
2022-12-25T21:04:18.798Z,12.90
2022-12-25T21:06:45.795Z,12.80
2022-12-25T21:09:13.079Z,12.90
2022-12-25T21:11:39.807Z,12.80
2022-12-25T21:14:07.299Z,12.70
2022-12-25T21:16:36.017Z,12.80
2022-12-25T21:19:07.911Z,12.90
2022-12-25T21:21:36.429Z,12.90
2022-12-25T21:26:55.991Z,13.00
2022-12-25T21:29:24.881Z,13.00
2022-12-25T21:32:15.580Z,13.00
2022-12-25T21:37:40.364Z,13.20
2022-12-25T21:40:16.188Z,13.20
2022-12-25T21:42:46.827Z,13.20
2022-12-25T21:45:16.078Z,13.20
2022-12-25T21:48:01.535Z,13.10
2022-12-25T21:50:48.150Z,13.20
2022-12-25T21:53:17.869Z,13.20
2022-12-25T21:55:57.418Z,13.20
2022-12-25T21:58:27.724Z,13.20
2022-12-25T22:00:54.596Z,13.20
2022-12-25T22:03:21.911Z,13.20
2022-12-25T22:06:07.708Z,13.30
2022-12-25T22:08:35.812Z,13.30
2022-12-25T22:11:05.497Z,13.40
2022-12-25T22:13:51.456Z,13.30
2022-12-25T22:16:39.887Z,13.30
2022-12-25T22:19:25.320Z,13.20
2022-12-25T22:21:52.386Z,13.20
2022-12-25T22:24:22.919Z,13.20
2022-12-25T22:26:51.769Z,13.20
2022-12-25T22:29:18.531Z,13.40
2022-12-25T22:31:47.645Z,13.50
2022-12-25T22:34:18.942Z,13.40
2022-12-25T22:36:47.105Z,13.50
2022-12-25T22:39:14.378Z,13.50
2022-12-25T22:41:42.518Z,13.50
2022-12-25T22:44:18.031Z,13.50
2022-12-25T22:46:45.433Z,13.40
2022-12-25T22:49:17.797Z,13.40
2022-12-25T22:51:46.573Z,13.40
2022-12-25T22:54:16.184Z,13.40
2022-12-25T22:56:49.138Z,13.50
2022-12-25T22:59:20.326Z,13.50
2022-12-25T23:01:48.433Z,13.50
2022-12-25T23:04:17.865Z,13.40
2022-12-25T23:06:45.093Z,13.40
2022-12-25T23:09:20.444Z,13.40
2022-12-25T23:11:51.060Z,13.40
2022-12-25T23:14:36.626Z,13.30
2022-12-25T23:17:07.911Z,13.30
2022-12-25T23:19:53.515Z,13.30
2022-12-25T23:22:40.196Z,13.30
2022-12-25T23:25:33.116Z,13.30
2022-12-25T23:28:00.111Z,13.40
2022-12-25T23:30:30.871Z,13.40
2022-12-25T23:32:59.817Z,13.40
2022-12-25T23:35:30.343Z,13.40
2022-12-25T23:38:00.043Z,13.30
2022-12-25T23:40:27.111Z,13.40
2022-12-25T23:42:54.021Z,13.30
2022-12-25T23:48:26.751Z,13.30
2022-12-25T23:50:55.482Z,13.30
2022-12-25T23:53:22.510Z,13.30
2022-12-25T23:55:55.373Z,13.50
2022-12-25T23:58:22.792Z,13.40
